sensor_id;sensor_type;location;lat;lon;timestamp;pressure;altitude;pressure_sealevel;temperature;humidity
28000;BME280;15328;50.860;10.562;2023-05-10T00:03:26;95706.94;;;16.80;35.30
28000;BME280;15328;50.860;10.562;2023-05-10T00:08:27;95710.72;;;16.79;36.19
28000;BME280;15328;50.860;10.562;2023-05-10T00:13:27;95707.50;;;16.67;36.25
28000;BME280;15328;50.860;10.562;2023-05-10T00:18:27;95691.66;;;16.60;36.62
28000;BME280;15328;50.860;10.562;2023-05-10T00:23:28;95701.06;;;16.58;36.84
28000;BME280;15328;50.860;10.562;2023-05-10T00:28:28;95700.56;;;16.46;36.62
28000;BME280;15328;50.860;10.562;2023-05-10T00:33:29;95699.75;;;16.55;36.88
28000;BME280;15328;50.860;10.562;2023-05-10T00:38:29;95690.66;;;16.46;37.65
28000;BME280;15328;50.860;10.562;2023-05-10T00:43:30;95691.69;;;16.50;38.14
28000;BME280;15328;50.860;10.562;2023-05-10T00:48:30;95700.31;;;16.32;40.26
28000;BME280;15328;50.860;10.562;2023-05-10T00:53:31;95696.28;;;16.34;39.78
28000;BME280;15328;50.860;10.562;2023-05-10T00:58:42;95692.28;;;16.27;41.24
28000;BME280;15328;50.860;10.562;2023-05-10T01:03:42;95687.47;;;16.14;41.34
28000;BME280;15328;50.860;10.562;2023-05-10T01:08:42;95702.22;;;16.21;41.65
28000;BME280;15328;50.860;10.562;2023-05-10T01:13:47;95698.22;;;16.19;41.23
28000;BME280;15328;50.860;10.562;2023-05-10T01:18:51;95692.56;;;16.15;42.38
28000;BME280;15328;50.860;10.562;2023-05-10T01:24:12;95694.72;;;16.13;42.55
28000;BME280;15328;50.860;10.562;2023-05-10T01:35:03;95688.81;;;16.11;43.05
28000;BME280;15328;50.860;10.562;2023-05-10T01:45:37;95695.25;;;16.10;43.12
28000;BME280;15328;50.860;10.562;2023-05-10T01:50:43;95698.47;;;16.12;42.93
28000;BME280;15328;50.860;10.562;2023-05-10T01:55:46;95701.69;;;16.09;43.40
28000;BME280;15328;50.860;10.562;2023-05-10T02:00:49;95712.16;;;16.05;43.66
28000;BME280;15328;50.860;10.562;2023-05-10T02:05:51;95707.63;;;15.96;43.51
28000;BME280;15328;50.860;10.562;2023-05-10T02:10:56;95708.16;;;15.93;43.84
28000;BME280;15328;50.860;10.562;2023-05-10T02:15:59;95710.03;;;15.92;44.08
28000;BME280;15328;50.860;10.562;2023-05-10T02:21:00;95712.69;;;15.72;44.87
28000;BME280;15328;50.860;10.562;2023-05-10T02:26:02;95713.25;;;15.74;45.05
28000;BME280;15328;50.860;10.562;2023-05-10T02:31:05;95715.13;;;15.73;45.78
28000;BME280;15328;50.860;10.562;2023-05-10T02:36:07;95704.91;;;15.81;45.34
28000;BME280;15328;50.860;10.562;2023-05-10T02:41:09;95714.03;;;15.80;45.70
28000;BME280;15328;50.860;10.562;2023-05-10T02:46:11;95710.53;;;15.59;47.25
28000;BME280;15328;50.860;10.562;2023-05-10T02:51:12;95708.38;;;15.61;46.97
28000;BME280;15328;50.860;10.562;2023-05-10T02:56:20;95713.97;;;15.54;47.66
28000;BME280;15328;50.860;10.562;2023-05-10T03:01:23;95711.03;;;15.45;48.29
28000;BME280;15328;50.860;10.562;2023-05-10T03:06:24;95703.25;;;15.49;48.77
28000;BME280;15328;50.860;10.562;2023-05-10T03:11:49;95698.69;;;15.50;49.30
28000;BME280;15328;50.860;10.562;2023-05-10T03:21:59;95708.03;;;15.32;50.94
28000;BME280;15328;50.860;10.562;2023-05-10T03:27:00;95707.22;;;15.31;51.91
28000;BME280;15328;50.860;10.562;2023-05-10T03:32:03;95704.81;;;15.25;53.51
28000;BME280;15328;50.860;10.562;2023-05-10T03:37:03;95710.22;;;15.35;53.76
28000;BME280;15328;50.860;10.562;2023-05-10T03:42:04;95702.41;;;15.23;55.79
28000;BME280;15328;50.860;10.562;2023-05-10T03:47:04;95701.31;;;15.14;56.95
28000;BME280;15328;50.860;10.562;2023-05-10T03:52:04;95695.69;;;15.15;57.39
28000;BME280;15328;50.860;10.562;2023-05-10T03:57:05;95691.13;;;15.11;58.04
28000;BME280;15328;50.860;10.562;2023-05-10T04:02:05;95688.66;;;14.99;58.82
28000;BME280;15328;50.860;10.562;2023-05-10T04:07:06;95679.16;;;14.61;61.29
28000;BME280;15328;50.860;10.562;2023-05-10T04:12:07;95685.59;;;14.65;61.86
28000;BME280;15328;50.860;10.562;2023-05-10T04:17:10;95693.09;;;14.68;61.33
28000;BME280;15328;50.860;10.562;2023-05-10T04:22:10;95692.28;;;14.63;62.40
28000;BME280;15328;50.860;10.562;2023-05-10T04:27:11;95708.13;;;14.74;62.21
28000;BME280;15328;50.860;10.562;2023-05-10T04:32:11;95710.56;;;14.81;62.14
28000;BME280;15328;50.860;10.562;2023-05-10T04:37:11;95712.22;;;14.92;62.16
28000;BME280;15328;50.860;10.562;2023-05-10T04:42:12;95722.13;;;14.97;62.75
28000;BME280;15328;50.860;10.562;2023-05-10T04:47:14;95733.94;;;15.01;62.49
28000;BME280;15328;50.860;10.562;2023-05-10T04:52:16;95733.47;;;15.14;62.67
28000;BME280;15328;50.860;10.562;2023-05-10T04:57:17;95734.28;;;15.25;61.79
28000;BME280;15328;50.860;10.562;2023-05-10T05:02:18;95748.28;;;15.37;61.60
28000;BME280;15328;50.860;10.562;2023-05-10T05:07:18;95745.06;;;15.45;60.75
28000;BME280;15328;50.860;10.562;2023-05-10T05:12:18;95754.97;;;15.50;60.26
28000;BME280;15328;50.860;10.562;2023-05-10T05:17:19;95757.13;;;15.58;60.16
28000;BME280;15328;50.860;10.562;2023-05-10T05:22:19;95767.94;;;15.68;59.50
28000;BME280;15328;50.860;10.562;2023-05-10T05:27:26;95774.09;;;15.73;59.28
28000;BME280;15328;50.860;10.562;2023-05-10T05:32:28;95780.81;;;15.76;58.62
28000;BME280;15328;50.860;10.562;2023-05-10T05:37:28;95777.31;;;15.81;59.02
28000;BME280;15328;50.860;10.562;2023-05-10T05:42:48;95783.47;;;15.76;58.85
28000;BME280;15328;50.860;10.562;2023-05-10T05:47:49;95803.31;;;15.80;58.88
28000;BME280;15328;50.860;10.562;2023-05-10T05:52:49;95808.06;;;15.58;59.96
28000;BME280;15328;50.860;10.562;2023-05-10T05:57:50;95819.81;;;15.41;60.32
28000;BME280;15328;50.860;10.562;2023-05-10T06:02:50;95823.84;;;15.44;60.28
28000;BME280;15328;50.860;10.562;2023-05-10T06:07:50;95834.56;;;15.44;60.08
28000;BME280;15328;50.860;10.562;2023-05-10T06:12:51;95836.16;;;15.35;60.25
28000;BME280;15328;50.860;10.562;2023-05-10T06:17:51;95840.13;;;15.32;60.45
28000;BME280;15328;50.860;10.562;2023-05-10T06:22:51;95851.19;;;15.46;59.67
28000;BME280;15328;50.860;10.562;2023-05-10T06:27:52;95855.22;;;15.49;59.04
28000;BME280;15328;50.860;10.562;2023-05-10T06:32:57;95842.38;;;15.56;59.00
28000;BME280;15328;50.860;10.562;2023-05-10T06:37:57;95863.31;;;15.59;59.29
28000;BME280;15328;50.860;10.562;2023-05-10T06:42:58;95863.38;;;15.64;58.54
28000;BME280;15328;50.860;10.562;2023-05-10T06:47:58;95865.25;;;15.68;58.47
28000;BME280;15328;50.860;10.562;2023-05-10T06:52:59;95864.72;;;15.66;58.55
28000;BME280;15328;50.860;10.562;2023-05-10T06:57:59;95872.75;;;15.66;58.88
28000;BME280;15328;50.860;10.562;2023-05-10T07:03:00;95870.63;;;15.84;59.12
28000;BME280;15328;50.860;10.562;2023-05-10T07:08:00;95864.53;;;16.08;59.02
28000;BME280;15328;50.860;10.562;2023-05-10T07:13:01;95865.38;;;16.24;59.22
28000;BME280;15328;50.860;10.562;2023-05-10T07:18:01;95861.88;;;16.39;58.37
28000;BME280;15328;50.860;10.562;2023-05-10T07:23:01;95876.38;;;16.38;57.66
28000;BME280;15328;50.860;10.562;2023-05-10T07:28:02;95870.50;;;16.46;56.45
28000;BME280;15328;50.860;10.562;2023-05-10T07:33:02;95882.56;;;16.69;56.22
28000;BME280;15328;50.860;10.562;2023-05-10T07:38:02;95885.00;;;16.81;55.13
28000;BME280;15328;50.860;10.562;2023-05-10T07:43:03;95890.88;;;17.08;55.02
28000;BME280;15328;50.860;10.562;2023-05-10T07:48:03;95891.91;;;17.33;54.75
28000;BME280;15328;50.860;10.562;2023-05-10T07:53:03;95901.50;;;17.59;53.22
28000;BME280;15328;50.860;10.562;2023-05-10T07:58:04;95905.25;;;17.58;51.84
28000;BME280;15328;50.860;10.562;2023-05-10T08:03:04;95913.59;;;17.56;51.89
28000;BME280;15328;50.860;10.562;2023-05-10T08:08:05;95923.00;;;17.59;51.07
28000;BME280;15328;50.860;10.562;2023-05-10T08:13:05;95922.53;;;17.37;50.52
28000;BME280;15328;50.860;10.562;2023-05-10T08:18:06;95931.91;;;17.44;51.53
28000;BME280;15328;50.860;10.562;2023-05-10T08:23:06;95930.00;;;17.60;51.85
28000;BME280;15328;50.860;10.562;2023-05-10T08:28:06;95934.78;;;17.78;51.18
28000;BME280;15328;50.860;10.562;2023-05-10T08:33:07;95936.72;;;17.57;50.93
28000;BME280;15328;50.860;10.562;2023-05-10T08:38:07;95943.75;;;17.53;51.37
28000;BME280;15328;50.860;10.562;2023-05-10T08:43:10;95952.06;;;17.67;51.58
28000;BME280;15328;50.860;10.562;2023-05-10T08:48:11;95949.19;;;18.08;50.78
28000;BME280;15328;50.860;10.562;2023-05-10T08:53:13;95949.09;;;18.28;49.60
28000;BME280;15328;50.860;10.562;2023-05-10T08:58:14;95962.91;;;18.11;49.20
28000;BME280;15328;50.860;10.562;2023-05-10T09:03:15;95965.31;;;18.18;49.86
28000;BME280;15328;50.860;10.562;2023-05-10T09:08:15;95957.00;;;18.53;49.01
28000;BME280;15328;50.860;10.562;2023-05-10T09:13:18;95968.44;;;19.13;48.78
28000;BME280;15328;50.860;10.562;2023-05-10T09:18:19;95966.28;;;19.73;46.70
28000;BME280;15328;50.860;10.562;2023-05-10T09:23:19;95981.44;;;19.93;44.96
28000;BME280;15328;50.860;10.562;2023-05-10T09:28:20;95978.97;;;19.73;44.75
28000;BME280;15328;50.860;10.562;2023-05-10T09:33:20;95985.91;;;19.55;44.65
28000;BME280;15328;50.860;10.562;2023-05-10T09:38:21;95996.13;;;19.58;45.06
28000;BME280;15328;50.860;10.562;2023-05-10T09:43:21;95995.31;;;19.58;45.04
28000;BME280;15328;50.860;10.562;2023-05-10T09:48:23;95989.72;;;19.78;45.04
28000;BME280;15328;50.860;10.562;2023-05-10T09:53:24;95997.16;;;19.86;44.29
28000;BME280;15328;50.860;10.562;2023-05-10T09:58:25;95995.03;;;19.59;44.54
28000;BME280;15328;50.860;10.562;2023-05-10T10:03:25;96003.19;;;19.49;44.99
28000;BME280;15328;50.860;10.562;2023-05-10T10:08:26;96018.28;;;19.16;45.67
28000;BME280;15328;50.860;10.562;2023-05-10T10:13:27;96014.41;;;18.98;46.28
28000;BME280;15328;50.860;10.562;2023-05-10T10:18:27;96012.88;;;19.55;46.22
28000;BME280;15328;50.860;10.562;2023-05-10T10:23:29;96013.38;;;20.10;45.75
28000;BME280;15328;50.860;10.562;2023-05-10T10:28:41;96012.66;;;20.23;43.63
28000;BME280;15328;50.860;10.562;2023-05-10T10:34:06;96020.50;;;20.01;43.92
28000;BME280;15328;50.860;10.562;2023-05-10T10:39:10;96025.75;;;19.87;43.31
28000;BME280;15328;50.860;10.562;2023-05-10T10:49:42;96009.59;;;19.58;44.12
28000;BME280;15328;50.860;10.562;2023-05-10T10:54:51;96014.50;;;19.51;44.73
28000;BME280;15328;50.860;10.562;2023-05-10T11:00:17;96008.50;;;19.59;44.28
28000;BME280;15328;50.860;10.562;2023-05-10T11:10:32;96015.31;;;19.81;44.03
28000;BME280;15328;50.860;10.562;2023-05-10T11:15:38;96017.34;;;19.65;44.55
28000;BME280;15328;50.860;10.562;2023-05-10T11:20:39;96017.78;;;19.43;44.15
28000;BME280;15328;50.860;10.562;2023-05-10T11:25:44;96020.47;;;19.48;44.56
28000;BME280;15328;50.860;10.562;2023-05-10T11:30:44;96024.78;;;19.49;43.88
28000;BME280;15328;50.860;10.562;2023-05-10T11:35:45;96028.78;;;19.23;44.36
28000;BME280;15328;50.860;10.562;2023-05-10T11:40:46;96028.28;;;19.50;43.10
28000;BME280;15328;50.860;10.562;2023-05-10T11:45:46;96027.19;;;19.51;42.98
28000;BME280;15328;50.860;10.562;2023-05-10T11:50:47;96035.69;;;20.16;42.83
28000;BME280;15328;50.860;10.562;2023-05-10T11:55:47;96037.66;;;20.58;41.70
28000;BME280;15328;50.860;10.562;2023-05-10T12:00:48;96034.13;;;20.76;40.61
28000;BME280;15328;50.860;10.562;2023-05-10T12:05:49;96036.19;;;21.03;40.53
28000;BME280;15328;50.860;10.562;2023-05-10T12:10:50;96034.00;;;21.24;39.70
28000;BME280;15328;50.860;10.562;2023-05-10T12:15:50;96040.56;;;21.18;40.42
28000;BME280;15328;50.860;10.562;2023-05-10T12:20:52;96054.47;;;21.11;39.29
28000;BME280;15328;50.860;10.562;2023-05-10T12:25:53;96048.09;;;21.02;39.55
28000;BME280;15328;50.860;10.562;2023-05-10T12:31:02;96048.84;;;20.89;41.92
28000;BME280;15328;50.860;10.562;2023-05-10T12:36:03;96059.13;;;20.68;43.84
28000;BME280;15328;50.860;10.562;2023-05-10T12:41:08;96055.50;;;20.54;44.91
28000;BME280;15328;50.860;10.562;2023-05-10T12:46:11;96062.75;;;20.34;45.29
28000;BME280;15328;50.860;10.562;2023-05-10T12:51:11;96067.44;;;20.29;46.28
28000;BME280;15328;50.860;10.562;2023-05-10T12:56:15;96068.38;;;20.38;46.17
28000;BME280;15328;50.860;10.562;2023-05-10T13:01:15;96071.94;;;20.10;46.21
28000;BME280;15328;50.860;10.562;2023-05-10T13:06:16;96067.38;;;19.81;47.09
28000;BME280;15328;50.860;10.562;2023-05-10T13:11:16;96063.03;;;19.56;47.72
28000;BME280;15328;50.860;10.562;2023-05-10T13:16:17;96074.38;;;19.53;47.94
28000;BME280;15328;50.860;10.562;2023-05-10T13:21:17;96076.84;;;19.44;48.36
28000;BME280;15328;50.860;10.562;2023-05-10T13:26:17;96075.78;;;19.45;47.77
28000;BME280;15328;50.860;10.562;2023-05-10T13:31:18;96076.41;;;19.32;48.00
28000;BME280;15328;50.860;10.562;2023-05-10T13:36:18;96071.66;;;19.19;48.28
28000;BME280;15328;50.860;10.562;2023-05-10T13:41:19;96072.56;;;19.38;48.34
28000;BME280;15328;50.860;10.562;2023-05-10T13:46:19;96062.41;;;19.64;47.83
28000;BME280;15328;50.860;10.562;2023-05-10T13:51:19;96065.56;;;19.77;47.46
28000;BME280;15328;50.860;10.562;2023-05-10T13:56:20;96060.63;;;19.84;46.87
28000;BME280;15328;50.860;10.562;2023-05-10T14:01:20;96052.81;;;19.82;47.01
28000;BME280;15328;50.860;10.562;2023-05-10T14:06:21;96063.25;;;19.60;46.86
28000;BME280;15328;50.860;10.562;2023-05-10T14:11:21;96058.34;;;19.33;47.46
28000;BME280;15328;50.860;10.562;2023-05-10T14:16:22;96059.50;;;19.22;47.99
28000;BME280;15328;50.860;10.562;2023-05-10T14:21:22;96052.00;;;19.19;48.28
28000;BME280;15328;50.860;10.562;2023-05-10T14:26:23;96054.97;;;19.12;48.32
28000;BME280;15328;50.860;10.562;2023-05-10T14:31:23;96050.63;;;19.21;48.26
28000;BME280;15328;50.860;10.562;2023-05-10T14:36:25;96055.31;;;19.39;48.00
28000;BME280;15328;50.860;10.562;2023-05-10T14:41:25;96055.25;;;19.44;47.70
28000;BME280;15328;50.860;10.562;2023-05-10T14:46:26;96054.44;;;19.49;47.34
28000;BME280;15328;50.860;10.562;2023-05-10T14:51:26;96046.88;;;19.51;47.56
28000;BME280;15328;50.860;10.562;2023-05-10T14:56:27;96051.75;;;19.49;48.14
28000;BME280;15328;50.860;10.562;2023-05-10T15:01:27;96058.78;;;19.45;47.46
28000;BME280;15328;50.860;10.562;2023-05-10T15:06:32;96058.81;;;19.40;47.96
28000;BME280;15328;50.860;10.562;2023-05-10T15:11:32;96064.59;;;19.28;48.00
28000;BME280;15328;50.860;10.562;2023-05-10T15:16:33;96074.47;;;19.04;47.17
28000;BME280;15328;50.860;10.562;2023-05-10T15:21:33;96082.34;;;18.95;47.62
28000;BME280;15328;50.860;10.562;2023-05-10T15:26:38;96093.97;;;18.91;46.71
28000;BME280;15328;50.860;10.562;2023-05-10T15:31:39;96104.59;;;18.57;47.50
28000;BME280;15328;50.860;10.562;2023-05-10T15:36:39;96103.28;;;18.49;47.77
28000;BME280;15328;50.860;10.562;2023-05-10T15:41:39;96117.31;;;18.31;48.51
28000;BME280;15328;50.860;10.562;2023-05-10T15:46:40;96132.72;;;18.20;48.25
28000;BME280;15328;50.860;10.562;2023-05-10T15:51:40;96124.13;;;17.98;48.42
28000;BME280;15328;50.860;10.562;2023-05-10T15:56:41;96128.22;;;17.85;49.56
28000;BME280;15328;50.860;10.562;2023-05-10T16:01:41;96138.94;;;17.80;50.01
28000;BME280;15328;50.860;10.562;2023-05-10T16:06:42;96147.03;;;17.80;50.27
28000;BME280;15328;50.860;10.562;2023-05-10T16:11:42;96143.25;;;17.76;50.23
28000;BME280;15328;50.860;10.562;2023-05-10T16:16:43;96147.81;;;17.55;51.02
28000;BME280;15328;50.860;10.562;2023-05-10T16:21:43;96142.44;;;17.45;51.53
28000;BME280;15328;50.860;10.562;2023-05-10T16:26:44;96152.91;;;17.51;51.17
28000;BME280;15328;50.860;10.562;2023-05-10T16:31:44;96158.03;;;17.58;51.00
28000;BME280;15328;50.860;10.562;2023-05-10T16:36:45;96152.09;;;17.51;50.81
28000;BME280;15328;50.860;10.562;2023-05-10T16:41:45;96171.47;;;17.43;51.05
28000;BME280;15328;50.860;10.562;2023-05-10T16:46:46;96161.50;;;17.33;51.31
28000;BME280;15328;50.860;10.562;2023-05-10T16:51:49;96167.69;;;17.28;51.53
28000;BME280;15328;50.860;10.562;2023-05-10T16:56:49;96172.25;;;17.33;51.53
28000;BME280;15328;50.860;10.562;2023-05-10T17:01:53;96181.41;;;17.32;51.72
28000;BME280;15328;50.860;10.562;2023-05-10T17:06:53;96180.59;;;17.32;51.93
28000;BME280;15328;50.860;10.562;2023-05-10T17:11:54;96184.91;;;17.27;52.37
28000;BME280;15328;50.860;10.562;2023-05-10T17:16:54;96188.94;;;17.30;52.39
28000;BME280;15328;50.860;10.562;2023-05-10T17:21:55;96187.00;;;17.15;53.19
28000;BME280;15328;50.860;10.562;2023-05-10T17:26:55;96198.28;;;17.12;53.48
28000;BME280;15328;50.860;10.562;2023-05-10T17:31:57;96192.63;;;17.14;54.15
28000;BME280;15328;50.860;10.562;2023-05-10T17:36:57;96194.78;;;17.07;54.43
28000;BME280;15328;50.860;10.562;2023-05-10T17:41:58;96193.16;;;17.06;54.91
28000;BME280;15328;50.860;10.562;2023-05-10T17:46:58;96201.16;;;16.95;55.31
28000;BME280;15328;50.860;10.562;2023-05-10T17:51:59;96196.06;;;16.89;55.56
28000;BME280;15328;50.860;10.562;2023-05-10T17:56:59;96204.88;;;16.79;55.91
28000;BME280;15328;50.860;10.562;2023-05-10T18:02:01;96205.34;;;16.66;56.14
28000;BME280;15328;50.860;10.562;2023-05-10T18:07:01;96206.69;;;16.68;56.26
28000;BME280;15328;50.860;10.562;2023-05-10T18:12:02;96207.78;;;16.67;56.72
28000;BME280;15328;50.860;10.562;2023-05-10T18:17:02;96206.16;;;16.66;56.58
28000;BME280;15328;50.860;10.562;2023-05-10T18:22:03;96206.31;;;16.50;57.19
28000;BME280;15328;50.860;10.562;2023-05-10T18:27:04;96205.53;;;16.49;57.04
28000;BME280;15328;50.860;10.562;2023-05-10T18:32:05;96203.63;;;16.45;57.23
28000;BME280;15328;50.860;10.562;2023-05-10T18:37:06;96214.53;;;16.33;58.00
28000;BME280;15328;50.860;10.562;2023-05-10T18:42:07;96223.13;;;16.30;57.97
28000;BME280;15328;50.860;10.562;2023-05-10T18:47:07;96224.66;;;16.21;57.90
28000;BME280;15328;50.860;10.562;2023-05-10T18:52:08;96228.63;;;16.13;58.29
28000;BME280;15328;50.860;10.562;2023-05-10T18:57:08;96229.66;;;16.07;58.67
28000;BME280;15328;50.860;10.562;2023-05-10T19:02:08;96237.72;;;16.07;58.65
28000;BME280;15328;50.860;10.562;2023-05-10T19:07:09;96236.06;;;16.01;59.21
28000;BME280;15328;50.860;10.562;2023-05-10T19:12:10;96253.69;;;15.92;58.98
28000;BME280;15328;50.860;10.562;2023-05-10T19:17:10;96255.03;;;15.89;59.44
28000;BME280;15328;50.860;10.562;2023-05-10T19:22:10;96248.78;;;15.84;59.40
28000;BME280;15328;50.860;10.562;2023-05-10T19:27:11;96258.09;;;15.76;59.41
28000;BME280;15328;50.860;10.562;2023-05-10T19:32:11;96269.59;;;15.71;59.86
28000;BME280;15328;50.860;10.562;2023-05-10T19:37:11;96272.84;;;15.73;60.03
28000;BME280;15328;50.860;10.562;2023-05-10T19:42:12;96270.97;;;15.74;59.85
28000;BME280;15328;50.860;10.562;2023-05-10T19:47:12;96273.63;;;15.74;60.22
28000;BME280;15328;50.860;10.562;2023-05-10T19:52:12;96276.50;;;15.62;60.08
28000;BME280;15328;50.860;10.562;2023-05-10T19:57:13;96269.72;;;15.60;59.58
28000;BME280;15328;50.860;10.562;2023-05-10T20:02:13;96265.91;;;15.56;59.05
28000;BME280;15328;50.860;10.562;2023-05-10T20:07:13;96276.59;;;15.51;58.18
28000;BME280;15328;50.860;10.562;2023-05-10T20:12:14;96279.47;;;15.44;57.97
28000;BME280;15328;50.860;10.562;2023-05-10T20:17:14;96266.28;;;15.37;58.04
28000;BME280;15328;50.860;10.562;2023-05-10T20:22:14;96275.56;;;15.30;57.83
28000;BME280;15328;50.860;10.562;2023-05-10T20:27:15;96278.50;;;15.28;58.26
28000;BME280;15328;50.860;10.562;2023-05-10T20:32:15;96274.81;;;15.34;58.25
28000;BME280;15328;50.860;10.562;2023-05-10T20:37:15;96276.31;;;15.25;58.13
28000;BME280;15328;50.860;10.562;2023-05-10T20:42:16;96276.25;;;15.20;58.18
28000;BME280;15328;50.860;10.562;2023-05-10T20:47:17;96275.16;;;15.16;58.22
28000;BME280;15328;50.860;10.562;2023-05-10T20:52:17;96274.59;;;15.14;58.04
28000;BME280;15328;50.860;10.562;2023-05-10T20:57:18;96265.09;;;15.06;58.19
28000;BME280;15328;50.860;10.562;2023-05-10T21:02:19;96269.34;;;15.02;58.22
28000;BME280;15328;50.860;10.562;2023-05-10T21:07:19;96258.31;;;14.99;58.44
28000;BME280;15328;50.860;10.562;2023-05-10T21:12:19;96265.84;;;15.02;58.38
28000;BME280;15328;50.860;10.562;2023-05-10T21:17:20;96265.28;;;15.00;58.27
28000;BME280;15328;50.860;10.562;2023-05-10T21:22:20;96265.63;;;14.81;58.72
28000;BME280;15328;50.860;10.562;2023-05-10T21:27:20;96263.88;;;14.92;58.41
28000;BME280;15328;50.860;10.562;2023-05-10T21:32:21;96258.88;;;15.01;58.64
28000;BME280;15328;50.860;10.562;2023-05-10T21:37:21;96262.13;;;15.03;58.68
28000;BME280;15328;50.860;10.562;2023-05-10T21:42:21;96263.38;;;14.95;58.71
28000;BME280;15328;50.860;10.562;2023-05-10T21:47:22;96258.69;;;14.86;58.78
28000;BME280;15328;50.860;10.562;2023-05-10T21:52:22;96257.03;;;14.79;59.53
28000;BME280;15328;50.860;10.562;2023-05-10T21:57:22;96266.09;;;14.78;59.58
28000;BME280;15328;50.860;10.562;2023-05-10T22:02:23;96260.41;;;14.75;59.54
28000;BME280;15328;50.860;10.562;2023-05-10T22:07:23;96258.19;;;14.67;60.07
28000;BME280;15328;50.860;10.562;2023-05-10T22:12:24;96258.19;;;14.67;60.83
28000;BME280;15328;50.860;10.562;2023-05-10T22:17:25;96260.41;;;14.53;61.62
28000;BME280;15328;50.860;10.562;2023-05-10T22:22:25;96250.28;;;14.55;61.47
28000;BME280;15328;50.860;10.562;2023-05-10T22:27:25;96265.59;;;14.60;61.83
28000;BME280;15328;50.860;10.562;2023-05-10T22:32:26;96256.50;;;14.61;62.10
28000;BME280;15328;50.860;10.562;2023-05-10T22:37:26;96260.47;;;14.58;62.16
28000;BME280;15328;50.860;10.562;2023-05-10T22:42:26;96260.06;;;14.49;62.96
28000;BME280;15328;50.860;10.562;2023-05-10T22:47:27;96260.00;;;14.44;63.14
28000;BME280;15328;50.860;10.562;2023-05-10T22:52:27;96258.81;;;14.52;63.73
28000;BME280;15328;50.860;10.562;2023-05-10T22:57:28;96257.66;;;14.48;63.93
28000;BME280;15328;50.860;10.562;2023-05-10T23:02:29;96257.16;;;14.51;63.95
28000;BME280;15328;50.860;10.562;2023-05-10T23:07:30;96253.50;;;14.57;64.63
28000;BME280;15328;50.860;10.562;2023-05-10T23:12:30;96250.41;;;14.65;64.06
28000;BME280;15328;50.860;10.562;2023-05-10T23:17:30;96256.94;;;14.74;63.86
28000;BME280;15328;50.860;10.562;2023-05-10T23:22:31;96260.34;;;14.70;64.34
28000;BME280;15328;50.860;10.562;2023-05-10T23:27:31;96263.84;;;14.70;64.61
28000;BME280;15328;50.860;10.562;2023-05-10T23:32:32;96256.63;;;14.71;64.21
28000;BME280;15328;50.860;10.562;2023-05-10T23:37:32;96264.34;;;14.67;64.07
28000;BME280;15328;50.860;10.562;2023-05-10T23:42:32;96265.41;;;14.66;64.54
28000;BME280;15328;50.860;10.562;2023-05-10T23:47:33;96258.38;;;14.60;65.02
28000;BME280;15328;50.860;10.562;2023-05-10T23:52:33;96255.28;;;14.51;65.82
28000;BME280;15328;50.860;10.562;2023-05-10T23:57:33;96256.44;;;14.56;65.49
